createdAt,value
2022-09-28T00:04:34.881Z,95.80
2022-09-28T00:14:37.047Z,96.00
2022-09-28T00:24:38.672Z,96.00
2022-09-28T00:34:43.280Z,96.20
2022-09-28T00:45:02.750Z,96.00
2022-09-28T00:55:09.550Z,96.00
2022-09-28T01:05:12.669Z,96.00
2022-09-28T01:15:15.585Z,96.30
2022-09-28T01:25:32.652Z,96.40
2022-09-28T01:35:47.575Z,96.50
2022-09-28T01:45:51.198Z,96.90
2022-09-28T01:55:57.636Z,97.20
2022-09-28T02:06:05.664Z,97.30
2022-09-28T02:16:16.960Z,97.70
2022-09-28T02:26:22.825Z,98.00
2022-09-28T02:36:26.431Z,98.30
2022-09-28T02:46:34.966Z,98.50
2022-09-28T02:57:00.211Z,98.60
2022-09-28T03:07:11.699Z,98.70
2022-09-28T03:17:13.333Z,98.50
2022-09-28T03:27:14.930Z,98.90
2022-09-28T03:37:16.600Z,99.00
2022-09-28T03:47:19.361Z,99.00
2022-09-28T03:57:20.972Z,99.40
2022-09-28T04:07:23.112Z,99.30
2022-09-28T04:17:24.723Z,99.40
2022-09-28T04:27:44.911Z,99.40
2022-09-28T04:37:46.577Z,99.70
2022-09-28T04:47:48.569Z,99.40
2022-09-28T04:57:50.191Z,99.70
2022-09-28T05:07:51.858Z,99.70
2022-09-28T05:17:53.501Z,99.80
2022-09-28T05:27:56.737Z,99.90
2022-09-28T05:38:04.503Z,99.90
2022-09-28T05:48:06.204Z,99.70
2022-09-28T05:58:08.378Z,99.70
2022-09-28T06:08:10.729Z,99.30
2022-09-28T06:18:16.864Z,99.10
2022-09-28T06:28:18.510Z,98.90
2022-09-28T06:38:20.111Z,98.80
2022-09-28T06:48:21.731Z,98.60
2022-09-28T06:58:24.094Z,98.60
2022-09-28T07:08:28.879Z,98.00
2022-09-28T07:18:30.546Z,98.10
2022-09-28T07:28:34.065Z,98.30
2022-09-28T07:38:35.873Z,98.10
2022-09-28T07:48:42.757Z,97.80
2022-09-28T07:58:44.548Z,98.20
2022-09-28T08:08:46.248Z,98.10
2022-09-28T08:18:50.650Z,97.40
2022-09-28T08:28:52.368Z,96.40
2022-09-28T08:38:54.970Z,95.20
2022-09-28T08:49:24.880Z,94.10
2022-09-28T08:59:46.629Z,92.70
2022-09-28T09:10:03.567Z,93.10
2022-09-28T09:20:17.390Z,93.00
2022-09-28T09:30:22.474Z,92.10
2022-09-28T09:40:56.551Z,92.50
2022-09-28T09:51:02.969Z,91.20
2022-09-28T10:01:12.378Z,91.50
2022-09-28T10:11:31.481Z,91.40
2022-09-28T10:21:37.504Z,91.00
2022-09-28T10:31:39.133Z,90.80
2022-09-28T10:41:49.903Z,90.80
2022-09-28T10:51:57.329Z,90.60
2022-09-28T11:02:02.880Z,84.70
2022-09-28T11:12:07.086Z,84.60
2022-09-28T11:22:26.755Z,84.50
2022-09-28T11:32:39.609Z,83.20
2022-09-28T11:42:50.901Z,83.40
2022-09-28T11:53:20.597Z,82.80
2022-09-28T12:03:42.240Z,82.20
2022-09-28T12:13:48.213Z,81.10
2022-09-28T12:30:49.339Z,79.00
2022-09-28T12:41:01.606Z,78.80
2022-09-28T12:51:25.628Z,76.50
2022-09-28T13:01:35.671Z,75.90
2022-09-28T13:12:01.886Z,74.90
2022-09-28T13:22:44.318Z,74.20
2022-09-28T13:32:50.097Z,75.20
2022-09-28T13:43:04.612Z,74.70
2022-09-28T13:53:32.129Z,75.00
2022-09-28T14:03:55.381Z,75.40
2022-09-28T14:14:24.091Z,74.10
2022-09-28T14:24:37.872Z,72.80
2022-09-28T14:34:45.939Z,70.40
2022-09-28T14:45:06.279Z,70.50
2022-09-28T14:55:14.851Z,70.60
2022-09-28T15:05:22.502Z,70.60
2022-09-28T15:15:38.086Z,70.00
2022-09-28T15:25:39.788Z,70.60
2022-09-28T15:35:41.716Z,70.70
2022-09-28T15:45:44.627Z,71.00
2022-09-28T15:55:50.298Z,72.00
2022-09-28T16:05:57.899Z,72.60
2022-09-28T16:16:00.932Z,73.50
2022-09-28T16:26:12.987Z,74.50
2022-09-28T16:36:17.067Z,74.90
2022-09-28T16:46:19.492Z,75.50
2022-09-28T16:56:21.798Z,76.50
2022-09-28T17:06:26.907Z,77.50
2022-09-28T17:26:53.049Z,79.10
2022-09-28T17:36:55.903Z,81.00
2022-09-28T17:46:57.717Z,81.90
2022-09-28T17:56:59.305Z,83.90
2022-09-28T18:07:00.918Z,84.60
2022-09-28T18:17:02.920Z,86.20
2022-09-28T18:27:04.649Z,87.80
2022-09-28T18:37:06.315Z,88.70
2022-09-28T18:47:07.953Z,89.40
2022-09-28T18:57:09.581Z,90.40
2022-09-28T19:07:11.209Z,90.80
2022-09-28T19:17:13.161Z,91.20
2022-09-28T19:27:14.800Z,91.40
2022-09-28T19:37:16.443Z,91.90
2022-09-28T19:47:21.463Z,92.20
2022-09-28T19:57:25.853Z,92.60
2022-09-28T20:07:27.489Z,92.90
2022-09-28T20:17:29.231Z,93.10
2022-09-28T20:27:30.870Z,93.20
2022-09-28T20:37:32.936Z,93.40
2022-09-28T20:47:34.600Z,93.80
2022-09-28T20:57:36.270Z,94.30
2022-09-28T21:07:37.922Z,94.30
2022-09-28T21:17:39.597Z,94.30
2022-09-28T21:27:41.443Z,94.40
2022-09-28T21:37:43.088Z,94.60
2022-09-28T21:47:52.607Z,94.80
2022-09-28T21:57:54.235Z,94.80
2022-09-28T22:07:55.860Z,94.80
2022-09-28T22:17:58.125Z,94.90
2022-09-28T22:27:59.853Z,94.80
2022-09-28T22:38:01.479Z,95.20
2022-09-28T22:48:03.135Z,95.30
2022-09-28T22:58:04.751Z,95.10
2022-09-28T23:08:06.370Z,95.30
2022-09-28T23:18:08.598Z,95.10
2022-09-28T23:28:10.251Z,95.40
2022-09-28T23:38:17.871Z,95.80
2022-09-28T23:48:19.529Z,95.50
2022-09-28T23:58:21.932Z,95.80
